sensor_id;sensor_type;location;lat;lon;timestamp;P1;durP1;ratioP1;P2;durP2;ratioP2
44384;SDS011;30101;32.778;34.994;2022-09-14T00:01:18;11.45;;;3.35;;
44384;SDS011;30101;32.778;34.994;2022-09-14T00:06:28;10.45;;;3.30;;
44384;SDS011;30101;32.778;34.994;2022-09-14T00:11:34;12.15;;;3.42;;
44384;SDS011;30101;32.778;34.994;2022-09-14T00:16:45;15.40;;;3.60;;
44384;SDS011;30101;32.778;34.994;2022-09-14T00:21:56;14.32;;;4.25;;
44384;SDS011;30101;32.778;34.994;2022-09-14T00:27:01;10.55;;;3.28;;
44384;SDS011;30101;32.778;34.994;2022-09-14T00:32:04;7.72;;;3.20;;
44384;SDS011;30101;32.778;34.994;2022-09-14T00:37:10;18.98;;;3.63;;
44384;SDS011;30101;32.778;34.994;2022-09-14T00:42:15;8.48;;;3.38;;
44384;SDS011;30101;32.778;34.994;2022-09-14T00:47:19;10.20;;;2.97;;
44384;SDS011;30101;32.778;34.994;2022-09-14T00:52:25;13.93;;;4.28;;
44384;SDS011;30101;32.778;34.994;2022-09-14T00:57:33;13.93;;;3.58;;
44384;SDS011;30101;32.778;34.994;2022-09-14T01:02:45;16.98;;;4.88;;
44384;SDS011;30101;32.778;34.994;2022-09-14T01:13:51;9.85;;;4.07;;
44384;SDS011;30101;32.778;34.994;2022-09-14T01:24:00;12.82;;;5.15;;
44384;SDS011;30101;32.778;34.994;2022-09-14T01:29:19;10.38;;;5.60;;
44384;SDS011;30101;32.778;34.994;2022-09-14T01:34:41;11.38;;;5.22;;
44384;SDS011;30101;32.778;34.994;2022-09-14T01:40:09;10.68;;;4.93;;
44384;SDS011;30101;32.778;34.994;2022-09-14T01:45:20;8.95;;;4.82;;
44384;SDS011;30101;32.778;34.994;2022-09-14T01:50:27;9.80;;;4.75;;
44384;SDS011;30101;32.778;34.994;2022-09-14T01:55:37;10.85;;;5.25;;
44384;SDS011;30101;32.778;34.994;2022-09-14T02:00:48;11.27;;;4.45;;
44384;SDS011;30101;32.778;34.994;2022-09-14T02:11:42;9.07;;;4.47;;
44384;SDS011;30101;32.778;34.994;2022-09-14T02:16:47;12.73;;;4.60;;
44384;SDS011;30101;32.778;34.994;2022-09-14T02:21:50;10.70;;;4.57;;
44384;SDS011;30101;32.778;34.994;2022-09-14T02:26:54;10.57;;;4.10;;
44384;SDS011;30101;32.778;34.994;2022-09-14T02:58:56;10.55;;;4.15;;
44384;SDS011;30101;32.778;34.994;2022-09-14T03:04:00;6.18;;;4.10;;
44384;SDS011;30101;32.778;34.994;2022-09-14T03:09:03;14.68;;;4.13;;
44384;SDS011;30101;32.778;34.994;2022-09-14T03:14:08;10.27;;;4.00;;
44384;SDS011;30101;32.778;34.994;2022-09-14T03:19:12;9.27;;;4.15;;
44384;SDS011;30101;32.778;34.994;2022-09-14T03:24:16;10.07;;;4.07;;
44384;SDS011;30101;32.778;34.994;2022-09-14T03:29:19;11.20;;;4.20;;
44384;SDS011;30101;32.778;34.994;2022-09-14T03:34:24;7.75;;;4.82;;
44384;SDS011;30101;32.778;34.994;2022-09-14T03:39:28;13.45;;;4.13;;
44384;SDS011;30101;32.778;34.994;2022-09-14T03:44:33;12.50;;;4.18;;
44384;SDS011;30101;32.778;34.994;2022-09-14T03:49:44;7.63;;;3.70;;
44384;SDS011;30101;32.778;34.994;2022-09-14T03:54:47;9.98;;;3.92;;
44384;SDS011;30101;32.778;34.994;2022-09-14T03:59:50;11.02;;;3.38;;
44384;SDS011;30101;32.778;34.994;2022-09-14T04:04:53;9.15;;;3.97;;
44384;SDS011;30101;32.778;34.994;2022-09-14T04:09:57;7.47;;;3.78;;
44384;SDS011;30101;32.778;34.994;2022-09-14T04:15:00;6.40;;;3.50;;
44384;SDS011;30101;32.778;34.994;2022-09-14T04:20:04;9.70;;;4.57;;
44384;SDS011;30101;32.778;34.994;2022-09-14T04:25:08;8.43;;;3.72;;
44384;SDS011;30101;32.778;34.994;2022-09-14T04:30:12;31.40;;;5.38;;
44384;SDS011;30101;32.778;34.994;2022-09-14T04:35:16;29.00;;;7.95;;
44384;SDS011;30101;32.778;34.994;2022-09-14T04:40:19;24.80;;;5.07;;
44384;SDS011;30101;32.778;34.994;2022-09-14T04:45:23;32.00;;;7.03;;
44384;SDS011;30101;32.778;34.994;2022-09-14T04:50:26;16.30;;;5.50;;
44384;SDS011;30101;32.778;34.994;2022-09-14T04:55:36;20.83;;;4.97;;
44384;SDS011;30101;32.778;34.994;2022-09-14T05:00:40;17.58;;;5.00;;
44384;SDS011;30101;32.778;34.994;2022-09-14T05:05:43;24.45;;;5.10;;
44384;SDS011;30101;32.778;34.994;2022-09-14T05:10:47;26.08;;;6.45;;
44384;SDS011;30101;32.778;34.994;2022-09-14T05:15:51;15.80;;;4.32;;
44384;SDS011;30101;32.778;34.994;2022-09-14T05:20:56;21.92;;;4.50;;
44384;SDS011;30101;32.778;34.994;2022-09-14T05:31:10;15.02;;;4.53;;
44384;SDS011;30101;32.778;34.994;2022-09-14T05:36:15;11.18;;;3.05;;
44384;SDS011;30101;32.778;34.994;2022-09-14T05:41:19;4.88;;;2.40;;
44384;SDS011;30101;32.778;34.994;2022-09-14T05:46:22;9.80;;;2.47;;
44384;SDS011;30101;32.778;34.994;2022-09-14T05:51:25;10.98;;;2.72;;
44384;SDS011;30101;32.778;34.994;2022-09-14T05:56:30;26.20;;;3.88;;
44384;SDS011;30101;32.778;34.994;2022-09-14T06:01:34;21.40;;;4.65;;
44384;SDS011;30101;32.778;34.994;2022-09-14T06:06:37;27.75;;;5.05;;
44384;SDS011;30101;32.778;34.994;2022-09-14T06:11:41;11.32;;;2.88;;
44384;SDS011;30101;32.778;34.994;2022-09-14T06:16:44;14.90;;;4.20;;
44384;SDS011;30101;32.778;34.994;2022-09-14T06:21:49;32.25;;;6.15;;
44384;SDS011;30101;32.778;34.994;2022-09-14T06:26:54;36.95;;;5.68;;
44384;SDS011;30101;32.778;34.994;2022-09-14T06:32:02;28.42;;;5.45;;
44384;SDS011;30101;32.778;34.994;2022-09-14T06:37:06;17.48;;;4.03;;
44384;SDS011;30101;32.778;34.994;2022-09-14T06:42:10;42.00;;;5.70;;
44384;SDS011;30101;32.778;34.994;2022-09-14T06:47:13;51.67;;;9.00;;
44384;SDS011;30101;32.778;34.994;2022-09-14T06:52:17;21.55;;;4.15;;
44384;SDS011;30101;32.778;34.994;2022-09-14T06:57:20;26.20;;;5.53;;
44384;SDS011;30101;32.778;34.994;2022-09-14T07:02:24;26.92;;;4.55;;
44384;SDS011;30101;32.778;34.994;2022-09-14T07:07:27;49.42;;;8.73;;
44384;SDS011;30101;32.778;34.994;2022-09-14T07:12:31;11.55;;;3.92;;
44384;SDS011;30101;32.778;34.994;2022-09-14T07:17:44;18.52;;;4.38;;
44384;SDS011;30101;32.778;34.994;2022-09-14T07:22:48;8.15;;;2.15;;
44384;SDS011;30101;32.778;34.994;2022-09-14T07:27:52;79.47;;;14.45;;
44384;SDS011;30101;32.778;34.994;2022-09-14T07:32:56;39.22;;;4.75;;
44384;SDS011;30101;32.778;34.994;2022-09-14T07:37:59;22.48;;;4.43;;
44384;SDS011;30101;32.778;34.994;2022-09-14T07:43:02;9.68;;;2.60;;
44384;SDS011;30101;32.778;34.994;2022-09-14T07:48:06;26.48;;;5.20;;
44384;SDS011;30101;32.778;34.994;2022-09-14T07:53:09;17.00;;;2.60;;
44384;SDS011;30101;32.778;34.994;2022-09-14T07:58:12;5.75;;;2.00;;
44384;SDS011;30101;32.778;34.994;2022-09-14T08:03:17;7.32;;;2.00;;
44384;SDS011;30101;32.778;34.994;2022-09-14T08:08:27;10.05;;;2.60;;
44384;SDS011;30101;32.778;34.994;2022-09-14T08:13:40;5.15;;;1.70;;
44384;SDS011;30101;32.778;34.994;2022-09-14T08:18:45;8.32;;;2.80;;
44384;SDS011;30101;32.778;34.994;2022-09-14T08:23:50;9.35;;;2.78;;
44384;SDS011;30101;32.778;34.994;2022-09-14T08:28:54;4.05;;;1.38;;
44384;SDS011;30101;32.778;34.994;2022-09-14T08:33:59;7.28;;;1.77;;
44384;SDS011;30101;32.778;34.994;2022-09-14T08:39:05;12.23;;;2.17;;
44384;SDS011;30101;32.778;34.994;2022-09-14T08:44:14;16.92;;;2.40;;
44384;SDS011;30101;32.778;34.994;2022-09-14T08:54:36;3.97;;;1.33;;
44384;SDS011;30101;32.778;34.994;2022-09-14T08:59:45;7.50;;;2.28;;
44384;SDS011;30101;32.778;34.994;2022-09-14T09:10:26;3.75;;;1.98;;
44384;SDS011;30101;32.778;34.994;2022-09-14T09:20:57;7.20;;;1.73;;
44384;SDS011;30101;32.778;34.994;2022-09-14T09:31:21;4.80;;;1.83;;
44384;SDS011;30101;32.778;34.994;2022-09-14T09:36:56;6.00;;;1.60;;
44384;SDS011;30101;32.778;34.994;2022-09-14T09:42:04;7.00;;;1.98;;
44384;SDS011;30101;32.778;34.994;2022-09-14T09:47:10;12.53;;;1.93;;
44384;SDS011;30101;32.778;34.994;2022-09-14T09:52:14;3.78;;;1.92;;
44384;SDS011;30101;32.778;34.994;2022-09-14T09:57:26;8.90;;;1.98;;
44384;SDS011;30101;32.778;34.994;2022-09-14T10:02:39;6.40;;;2.05;;
44384;SDS011;30101;32.778;34.994;2022-09-14T10:12:53;6.78;;;1.80;;
44384;SDS011;30101;32.778;34.994;2022-09-14T10:28:21;18.55;;;2.30;;
44384;SDS011;30101;32.778;34.994;2022-09-14T10:33:29;5.50;;;1.77;;
44384;SDS011;30101;32.778;34.994;2022-09-14T10:38:38;10.00;;;2.65;;
44384;SDS011;30101;32.778;34.994;2022-09-14T11:05:04;9.02;;;2.00;;
44384;SDS011;30101;32.778;34.994;2022-09-14T11:21:18;8.43;;;1.92;;
44384;SDS011;30101;32.778;34.994;2022-09-14T11:26:44;7.72;;;1.85;;
44384;SDS011;30101;32.778;34.994;2022-09-14T11:37:31;9.23;;;2.92;;
44384;SDS011;30101;32.778;34.994;2022-09-14T11:42:43;7.45;;;2.55;;
44384;SDS011;30101;32.778;34.994;2022-09-14T11:48:19;16.08;;;1.90;;
44384;SDS011;30101;32.778;34.994;2022-09-14T11:53:45;9.73;;;2.20;;
44384;SDS011;30101;32.778;34.994;2022-09-14T11:58:49;10.27;;;2.25;;
44384;SDS011;30101;32.778;34.994;2022-09-14T12:19:26;9.80;;;2.33;;
44384;SDS011;30101;32.778;34.994;2022-09-14T12:24:29;11.05;;;2.38;;
44384;SDS011;30101;32.778;34.994;2022-09-14T12:29:33;7.10;;;1.95;;
44384;SDS011;30101;32.778;34.994;2022-09-14T12:34:37;7.80;;;1.80;;
44384;SDS011;30101;32.778;34.994;2022-09-14T12:39:41;8.20;;;1.67;;
44384;SDS011;30101;32.778;34.994;2022-09-14T12:45:46;10.75;;;2.45;;
44384;SDS011;30101;32.778;34.994;2022-09-14T12:50:50;17.80;;;3.05;;
44384;SDS011;30101;32.778;34.994;2022-09-14T12:55:57;11.30;;;1.70;;
44384;SDS011;30101;32.778;34.994;2022-09-14T13:01:27;4.82;;;1.45;;
44384;SDS011;30101;32.778;34.994;2022-09-14T13:06:44;7.55;;;1.70;;
44384;SDS011;30101;32.778;34.994;2022-09-14T13:17:11;11.13;;;1.80;;
44384;SDS011;30101;32.778;34.994;2022-09-14T13:22:20;5.05;;;1.60;;
44384;SDS011;30101;32.778;34.994;2022-09-14T13:32:34;11.73;;;1.73;;
44384;SDS011;30101;32.778;34.994;2022-09-14T13:37:43;11.00;;;2.00;;
44384;SDS011;30101;32.778;34.994;2022-09-14T13:42:51;7.22;;;1.55;;
44384;SDS011;30101;32.778;34.994;2022-09-14T13:47:55;6.60;;;1.80;;
44384;SDS011;30101;32.778;34.994;2022-09-14T13:53:02;7.85;;;1.88;;
44384;SDS011;30101;32.778;34.994;2022-09-14T13:58:20;8.73;;;2.05;;
44384;SDS011;30101;32.778;34.994;2022-09-14T14:03:40;8.35;;;1.70;;
44384;SDS011;30101;32.778;34.994;2022-09-14T14:08:54;7.50;;;1.85;;
44384;SDS011;30101;32.778;34.994;2022-09-14T14:19:26;8.02;;;1.75;;
44384;SDS011;30101;32.778;34.994;2022-09-14T14:24:31;6.30;;;1.98;;
44384;SDS011;30101;32.778;34.994;2022-09-14T14:29:34;6.55;;;1.45;;
44384;SDS011;30101;32.778;34.994;2022-09-14T14:34:38;6.15;;;1.92;;
44384;SDS011;30101;32.778;34.994;2022-09-14T14:39:42;5.63;;;1.70;;
44384;SDS011;30101;32.778;34.994;2022-09-14T14:44:51;3.58;;;1.30;;
44384;SDS011;30101;32.778;34.994;2022-09-14T14:49:54;6.30;;;2.30;;
44384;SDS011;30101;32.778;34.994;2022-09-14T14:54:57;5.78;;;1.55;;
44384;SDS011;30101;32.778;34.994;2022-09-14T15:00:05;4.93;;;1.67;;
44384;SDS011;30101;32.778;34.994;2022-09-14T15:05:14;9.98;;;1.52;;
44384;SDS011;30101;32.778;34.994;2022-09-14T15:10:18;7.20;;;2.35;;
44384;SDS011;30101;32.778;34.994;2022-09-14T15:15:24;9.23;;;2.00;;
44384;SDS011;30101;32.778;34.994;2022-09-14T15:20:28;8.63;;;2.15;;
44384;SDS011;30101;32.778;34.994;2022-09-14T15:25:32;4.93;;;1.80;;
44384;SDS011;30101;32.778;34.994;2022-09-14T15:30:39;5.95;;;1.80;;
44384;SDS011;30101;32.778;34.994;2022-09-14T15:35:42;8.10;;;1.65;;
44384;SDS011;30101;32.778;34.994;2022-09-14T15:40:45;9.48;;;2.00;;
44384;SDS011;30101;32.778;34.994;2022-09-14T15:45:49;22.48;;;2.10;;
44384;SDS011;30101;32.778;34.994;2022-09-14T15:50:54;9.38;;;1.90;;
44384;SDS011;30101;32.778;34.994;2022-09-14T15:56:05;5.80;;;1.88;;
44384;SDS011;30101;32.778;34.994;2022-09-14T16:01:13;9.63;;;2.65;;
44384;SDS011;30101;32.778;34.994;2022-09-14T16:06:18;8.65;;;2.25;;
44384;SDS011;30101;32.778;34.994;2022-09-14T16:11:21;4.30;;;1.80;;
44384;SDS011;30101;32.778;34.994;2022-09-14T16:16:25;9.43;;;2.20;;
44384;SDS011;30101;32.778;34.994;2022-09-14T16:21:30;6.70;;;2.03;;
44384;SDS011;30101;32.778;34.994;2022-09-14T16:26:35;9.43;;;2.67;;
44384;SDS011;30101;32.778;34.994;2022-09-14T16:31:41;9.18;;;2.00;;
44384;SDS011;30101;32.778;34.994;2022-09-14T16:36:48;8.10;;;1.90;;
44384;SDS011;30101;32.778;34.994;2022-09-14T16:41:52;8.95;;;2.67;;
44384;SDS011;30101;32.778;34.994;2022-09-14T16:46:56;7.78;;;2.30;;
44384;SDS011;30101;32.778;34.994;2022-09-14T16:52:04;6.38;;;2.25;;
44384;SDS011;30101;32.778;34.994;2022-09-14T16:57:08;8.68;;;2.40;;
44384;SDS011;30101;32.778;34.994;2022-09-14T17:02:12;14.27;;;2.70;;
44384;SDS011;30101;32.778;34.994;2022-09-14T17:07:15;12.63;;;2.65;;
44384;SDS011;30101;32.778;34.994;2022-09-14T17:12:19;6.40;;;2.20;;
44384;SDS011;30101;32.778;34.994;2022-09-14T17:17:24;6.72;;;2.30;;
44384;SDS011;30101;32.778;34.994;2022-09-14T17:22:28;6.93;;;1.77;;
44384;SDS011;30101;32.778;34.994;2022-09-14T17:27:32;5.43;;;2.10;;
44384;SDS011;30101;32.778;34.994;2022-09-14T17:32:36;9.77;;;2.90;;
44384;SDS011;30101;32.778;34.994;2022-09-14T17:37:39;8.45;;;2.25;;
44384;SDS011;30101;32.778;34.994;2022-09-14T17:42:42;10.25;;;2.50;;
44384;SDS011;30101;32.778;34.994;2022-09-14T17:47:46;13.70;;;3.10;;
44384;SDS011;30101;32.778;34.994;2022-09-14T17:52:50;9.93;;;2.47;;
44384;SDS011;30101;32.778;34.994;2022-09-14T17:57:55;6.40;;;2.40;;
44384;SDS011;30101;32.778;34.994;2022-09-14T18:03:06;11.55;;;2.75;;
44384;SDS011;30101;32.778;34.994;2022-09-14T18:08:09;5.75;;;2.67;;
44384;SDS011;30101;32.778;34.994;2022-09-14T18:13:13;7.55;;;2.03;;
44384;SDS011;30101;32.778;34.994;2022-09-14T18:18:16;10.23;;;2.47;;
44384;SDS011;30101;32.778;34.994;2022-09-14T18:23:20;11.40;;;2.40;;
44384;SDS011;30101;32.778;34.994;2022-09-14T18:28:23;4.85;;;1.58;;
44384;SDS011;30101;32.778;34.994;2022-09-14T18:33:27;10.32;;;2.53;;
44384;SDS011;30101;32.778;34.994;2022-09-14T18:38:31;6.68;;;1.90;;
44384;SDS011;30101;32.778;34.994;2022-09-14T18:43:35;6.03;;;2.00;;
44384;SDS011;30101;32.778;34.994;2022-09-14T18:48:40;9.13;;;2.33;;
44384;SDS011;30101;32.778;34.994;2022-09-14T18:53:56;9.40;;;2.42;;
44384;SDS011;30101;32.778;34.994;2022-09-14T18:59:02;4.63;;;1.48;;
44384;SDS011;30101;32.778;34.994;2022-09-14T19:04:08;5.60;;;1.70;;
44384;SDS011;30101;32.778;34.994;2022-09-14T19:09:13;7.15;;;1.70;;
44384;SDS011;30101;32.778;34.994;2022-09-14T19:14:16;5.70;;;1.77;;
44384;SDS011;30101;32.778;34.994;2022-09-14T19:19:21;6.38;;;2.17;;
44384;SDS011;30101;32.778;34.994;2022-09-14T19:24:24;4.43;;;1.60;;
44384;SDS011;30101;32.778;34.994;2022-09-14T19:29:27;6.40;;;2.13;;
44384;SDS011;30101;32.778;34.994;2022-09-14T19:34:31;8.13;;;2.30;;
44384;SDS011;30101;32.778;34.994;2022-09-14T19:39:35;8.05;;;1.80;;
44384;SDS011;30101;32.778;34.994;2022-09-14T19:44:39;5.65;;;2.08;;
44384;SDS011;30101;32.778;34.994;2022-09-14T19:49:42;4.03;;;1.80;;
44384;SDS011;30101;32.778;34.994;2022-09-14T19:54:48;4.05;;;1.55;;
44384;SDS011;30101;32.778;34.994;2022-09-14T19:59:55;6.90;;;1.98;;
44384;SDS011;30101;32.778;34.994;2022-09-14T20:04:58;7.68;;;2.45;;
44384;SDS011;30101;32.778;34.994;2022-09-14T20:10:02;8.65;;;2.70;;
44384;SDS011;30101;32.778;34.994;2022-09-14T20:15:06;5.65;;;1.77;;
44384;SDS011;30101;32.778;34.994;2022-09-14T20:20:10;4.20;;;1.60;;
44384;SDS011;30101;32.778;34.994;2022-09-14T20:25:13;5.78;;;1.92;;
44384;SDS011;30101;32.778;34.994;2022-09-14T20:30:17;5.40;;;2.17;;
44384;SDS011;30101;32.778;34.994;2022-09-14T20:35:21;7.55;;;3.28;;
44384;SDS011;30101;32.778;34.994;2022-09-14T20:40:25;8.20;;;1.98;;
44384;SDS011;30101;32.778;34.994;2022-09-14T20:45:28;6.15;;;2.50;;
44384;SDS011;30101;32.778;34.994;2022-09-14T20:50:31;5.47;;;2.35;;
44384;SDS011;30101;32.778;34.994;2022-09-14T20:55:35;7.82;;;2.38;;
44384;SDS011;30101;32.778;34.994;2022-09-14T21:00:38;4.65;;;2.00;;
44384;SDS011;30101;32.778;34.994;2022-09-14T21:05:41;2.35;;;1.50;;
44384;SDS011;30101;32.778;34.994;2022-09-14T21:10:45;5.13;;;2.05;;
44384;SDS011;30101;32.778;34.994;2022-09-14T21:15:48;9.95;;;2.97;;
44384;SDS011;30101;32.778;34.994;2022-09-14T21:20:52;6.53;;;2.20;;
44384;SDS011;30101;32.778;34.994;2022-09-14T21:25:55;6.93;;;2.95;;
44384;SDS011;30101;32.778;34.994;2022-09-14T21:36:11;5.72;;;2.22;;
44384;SDS011;30101;32.778;34.994;2022-09-14T21:41:14;9.13;;;2.35;;
44384;SDS011;30101;32.778;34.994;2022-09-14T21:46:18;7.97;;;2.67;;
44384;SDS011;30101;32.778;34.994;2022-09-14T21:51:23;4.72;;;2.10;;
44384;SDS011;30101;32.778;34.994;2022-09-14T21:56:30;4.75;;;2.10;;
44384;SDS011;30101;32.778;34.994;2022-09-14T22:01:35;6.05;;;2.40;;
44384;SDS011;30101;32.778;34.994;2022-09-14T22:06:38;5.00;;;2.15;;
44384;SDS011;30101;32.778;34.994;2022-09-14T22:11:42;5.20;;;1.95;;
44384;SDS011;30101;32.778;34.994;2022-09-14T22:16:46;8.80;;;2.58;;
44384;SDS011;30101;32.778;34.994;2022-09-14T22:21:51;8.52;;;2.38;;
44384;SDS011;30101;32.778;34.994;2022-09-14T22:26:55;10.88;;;2.15;;
44384;SDS011;30101;32.778;34.994;2022-09-14T22:31:59;7.45;;;2.38;;
44384;SDS011;30101;32.778;34.994;2022-09-14T22:37:02;8.35;;;2.80;;
44384;SDS011;30101;32.778;34.994;2022-09-14T22:42:06;7.28;;;3.13;;
44384;SDS011;30101;32.778;34.994;2022-09-14T22:47:10;5.95;;;2.53;;
44384;SDS011;30101;32.778;34.994;2022-09-14T22:52:13;6.25;;;2.80;;
44384;SDS011;30101;32.778;34.994;2022-09-14T22:57:16;5.05;;;2.63;;
44384;SDS011;30101;32.778;34.994;2022-09-14T23:02:19;9.20;;;3.00;;
44384;SDS011;30101;32.778;34.994;2022-09-14T23:07:23;8.00;;;2.85;;
44384;SDS011;30101;32.778;34.994;2022-09-14T23:12:26;10.70;;;2.78;;
44384;SDS011;30101;32.778;34.994;2022-09-14T23:17:30;9.85;;;2.85;;
44384;SDS011;30101;32.778;34.994;2022-09-14T23:22:34;5.68;;;2.55;;
44384;SDS011;30101;32.778;34.994;2022-09-14T23:27:38;6.75;;;2.70;;
44384;SDS011;30101;32.778;34.994;2022-09-14T23:32:41;8.48;;;2.67;;
44384;SDS011;30101;32.778;34.994;2022-09-14T23:37:45;7.82;;;2.55;;
44384;SDS011;30101;32.778;34.994;2022-09-14T23:42:48;7.63;;;2.67;;
44384;SDS011;30101;32.778;34.994;2022-09-14T23:47:52;5.70;;;2.65;;
44384;SDS011;30101;32.778;34.994;2022-09-14T23:52:55;13.15;;;3.15;;
44384;SDS011;30101;32.778;34.994;2022-09-14T23:57:59;7.43;;;3.45;;
